Terminal Aerodrome Forecast
Issued by NWS

Home | Current Version | Previous Version | Text Only | Print | Product List | Glossary On
Versions: 1 2 3 4 5 6 7 8 9 10 11 12 13
000
FTUS45 KVEF 261139
TAFHND
TAF
KHND 261139Z 2612/2712 17006KT P6SM BKN120 BKN200
     FM261700 VRB05KT P6SM FEW060
     FM262300 19008KT P6SM SCT060
     FM270300 21015KT P6SM SCT060=

USA.gov is the U.S. government's official web portal to all federal, state and local government web resources and services.